createdAt,value
2018-05-23T00:02:19.173Z,17.14
2018-05-23T00:04:46.589Z,17.08
2018-05-23T00:07:14.061Z,17.02
2018-05-23T00:09:41.500Z,17.12
2018-05-23T00:12:08.965Z,17.15
2018-05-23T00:14:36.381Z,17.00
2018-05-23T00:17:03.789Z,17.05
2018-05-23T00:19:31.240Z,17.01
2018-05-23T00:21:58.617Z,16.99
2018-05-23T00:24:26.029Z,16.93
2018-05-23T00:26:53.513Z,16.94
2018-05-23T00:29:20.912Z,16.91
2018-05-23T00:31:48.323Z,16.91
2018-05-23T00:34:15.705Z,16.79
2018-05-23T00:36:43.085Z,16.85
2018-05-23T00:39:10.479Z,16.88
2018-05-23T00:41:37.865Z,16.78
2018-05-23T00:44:05.265Z,16.80
2018-05-23T00:46:32.757Z,16.79
2018-05-23T00:49:00.163Z,16.77
2018-05-23T00:51:27.546Z,16.74
2018-05-23T00:53:54.942Z,16.68
2018-05-23T00:56:22.481Z,16.63
2018-05-23T00:58:49.928Z,16.56
2018-05-23T01:01:17.403Z,16.57
2018-05-23T01:03:44.853Z,16.72
2018-05-23T01:06:12.236Z,16.61
2018-05-23T01:08:39.629Z,16.53
2018-05-23T01:11:07.038Z,16.41
2018-05-23T01:13:34.441Z,16.50
2018-05-23T01:16:01.934Z,16.56
2018-05-23T01:18:29.347Z,16.53
2018-05-23T01:20:56.833Z,16.43
2018-05-23T01:23:24.284Z,16.54
2018-05-23T01:25:51.674Z,16.53
2018-05-23T01:28:19.131Z,16.44
2018-05-23T01:30:46.485Z,16.51
2018-05-23T01:33:13.990Z,16.45
2018-05-23T01:35:41.429Z,16.36
2018-05-23T01:38:08.861Z,16.46
2018-05-23T01:40:36.272Z,16.42
2018-05-23T01:43:03.689Z,16.23
2018-05-23T01:45:31.151Z,16.21
2018-05-23T01:47:58.537Z,16.19
2018-05-23T01:50:25.965Z,16.17
2018-05-23T01:52:53.429Z,16.11
2018-05-23T01:55:21.053Z,16.11
2018-05-23T01:57:48.450Z,16.07
2018-05-23T02:00:15.929Z,16.18
2018-05-23T02:02:43.349Z,16.15
2018-05-23T02:05:10.749Z,16.08
2018-05-23T02:07:38.133Z,16.01
2018-05-23T02:10:05.625Z,15.97
2018-05-23T02:12:33.090Z,16.09
2018-05-23T02:15:00.485Z,16.00
2018-05-23T02:17:27.889Z,16.01
2018-05-23T02:19:55.356Z,15.85
2018-05-23T02:22:22.750Z,15.82
2018-05-23T02:24:50.259Z,15.91
2018-05-23T02:27:17.643Z,15.82
2018-05-23T02:29:45.034Z,15.81
2018-05-23T02:32:12.435Z,15.81
2018-05-23T02:34:39.830Z,15.75
2018-05-23T02:37:07.233Z,15.75
2018-05-23T02:39:34.641Z,15.73
2018-05-23T02:42:02.044Z,15.73
2018-05-23T02:44:29.493Z,15.74
2018-05-23T02:46:56.953Z,15.75
2018-05-23T02:49:24.359Z,15.62
2018-05-23T02:51:51.774Z,15.63
2018-05-23T02:54:19.183Z,15.52
2018-05-23T02:56:46.569Z,15.50
2018-05-23T02:59:14.083Z,15.60
2018-05-23T03:01:41.493Z,15.58
2018-05-23T03:04:08.905Z,15.40
2018-05-23T03:06:36.313Z,15.45
2018-05-23T03:09:03.709Z,15.53
2018-05-23T03:11:31.123Z,15.52
2018-05-23T03:13:58.508Z,15.51
2018-05-23T03:16:25.925Z,15.53
2018-05-23T03:18:53.413Z,15.40
2018-05-23T03:21:20.803Z,15.48
2018-05-23T03:23:48.204Z,15.43
2018-05-23T03:26:15.594Z,15.37
2018-05-23T03:28:43.005Z,15.39
2018-05-23T03:31:10.472Z,15.33
2018-05-23T03:33:37.937Z,15.37
2018-05-23T03:36:05.408Z,15.49
2018-05-23T03:38:32.784Z,15.40
2018-05-23T03:41:00.197Z,15.45
2018-05-23T03:43:27.587Z,15.49
2018-05-23T03:45:55.001Z,15.59
2018-05-23T03:48:22.393Z,15.67
2018-05-23T03:50:49.809Z,15.71
2018-05-23T03:53:17.187Z,15.61
2018-05-23T03:55:44.636Z,15.58
2018-05-23T03:58:12.020Z,15.67
2018-05-23T04:00:51.433Z,15.82
2018-05-23T04:03:30.968Z,15.97
2018-05-23T04:06:10.134Z,15.94
2018-05-23T04:08:37.528Z,15.84
2018-05-23T04:11:04.950Z,15.79
2018-05-23T04:13:32.358Z,15.79
2018-05-23T04:15:59.761Z,15.81
2018-05-23T04:18:27.165Z,15.95
2018-05-23T04:20:54.654Z,16.07
2018-05-23T04:23:22.069Z,16.16
2018-05-23T04:25:49.477Z,16.17
2018-05-23T04:28:16.865Z,16.28
2018-05-23T04:30:44.369Z,16.35
2018-05-23T04:33:11.809Z,16.38
2018-05-23T04:35:39.262Z,16.27
2018-05-23T04:38:06.659Z,16.31
2018-05-23T04:40:34.068Z,16.32
2018-05-23T04:43:01.475Z,16.33
2018-05-23T04:45:28.891Z,16.42
2018-05-23T04:47:56.281Z,16.54
2018-05-23T04:50:23.710Z,16.59
2018-05-23T04:52:51.098Z,16.81
2018-05-23T04:55:18.520Z,16.86
2018-05-23T04:57:45.978Z,16.97
2018-05-23T05:00:13.441Z,17.02
2018-05-23T05:02:40.820Z,17.07
2018-05-23T05:05:08.218Z,17.10
2018-05-23T05:07:35.725Z,17.27
2018-05-23T05:10:03.196Z,17.34
2018-05-23T05:12:30.552Z,17.26
2018-05-23T05:14:57.944Z,17.33
2018-05-23T05:17:25.337Z,17.39
2018-05-23T05:19:52.732Z,17.55
2018-05-23T05:22:20.193Z,17.56
2018-05-23T05:24:47.643Z,17.61
2018-05-23T05:27:15.011Z,17.53
2018-05-23T05:29:42.406Z,17.49
2018-05-23T05:32:09.797Z,17.60
2018-05-23T05:34:37.205Z,17.82
2018-05-23T05:37:04.629Z,18.02
2018-05-23T05:39:32.017Z,18.26
2018-05-23T05:41:59.432Z,18.48
2018-05-23T05:44:26.898Z,18.68
2018-05-23T05:46:54.307Z,18.80
2018-05-23T05:49:21.693Z,18.72
2018-05-23T05:51:49.098Z,18.90
2018-05-23T05:54:16.501Z,18.97
2018-05-23T05:56:43.892Z,19.13
2018-05-23T05:59:11.281Z,19.41
2018-05-23T06:01:38.687Z,19.42
2018-05-23T06:04:06.069Z,19.46
2018-05-23T06:06:33.517Z,19.59
2018-05-23T06:09:00.925Z,19.72
2018-05-23T06:11:28.366Z,19.67
2018-05-23T06:13:55.818Z,19.72
2018-05-23T06:16:23.225Z,19.80
2018-05-23T06:18:50.710Z,19.93
2018-05-23T06:21:18.090Z,20.25
2018-05-23T06:23:45.494Z,20.22
2018-05-23T06:26:12.945Z,20.27
2018-05-23T06:28:40.409Z,20.55
2018-05-23T06:31:07.884Z,20.72
2018-05-23T06:33:35.437Z,21.52
2018-05-23T06:36:02.858Z,22.76
2018-05-23T06:38:30.257Z,24.24
2018-05-23T06:40:57.657Z,25.16
2018-05-23T06:43:25.147Z,26.40
2018-05-23T06:45:52.567Z,27.55
2018-05-23T06:48:20.037Z,28.20
2018-05-23T06:50:47.459Z,28.89
2018-05-23T06:53:14.900Z,28.84
2018-05-23T06:55:42.356Z,28.37
2018-05-23T06:58:09.766Z,28.23
2018-05-23T07:00:37.173Z,28.06
2018-05-23T07:03:04.556Z,28.58
2018-05-23T07:05:31.957Z,28.86
2018-05-23T07:07:59.348Z,29.29
2018-05-23T07:10:26.749Z,29.01
2018-05-23T07:12:54.147Z,28.43
2018-05-23T07:15:21.640Z,28.20
2018-05-23T07:17:49.061Z,27.66
2018-05-23T07:20:16.454Z,27.53
2018-05-23T07:22:43.926Z,27.58
2018-05-23T07:27:34.869Z,28.08
2018-05-23T07:30:02.293Z,28.36
2018-05-23T07:32:29.768Z,28.18
2018-05-23T07:34:57.153Z,28.28
2018-05-23T07:37:24.683Z,27.41
2018-05-23T07:39:52.065Z,26.78
2018-05-23T07:42:19.486Z,26.73
2018-05-23T07:44:46.965Z,26.72
2018-05-23T07:47:14.359Z,27.09
2018-05-23T07:49:41.765Z,27.47
2018-05-23T07:52:09.178Z,27.55
2018-05-23T07:54:36.649Z,27.72
2018-05-23T07:57:04.045Z,27.63
2018-05-23T07:59:31.546Z,28.04
2018-05-23T08:01:58.942Z,27.72
2018-05-23T08:04:26.341Z,27.40
2018-05-23T08:06:53.837Z,27.34
2018-05-23T08:09:21.180Z,27.24
2018-05-23T08:11:48.581Z,27.15
2018-05-23T08:14:15.981Z,26.92
2018-05-23T08:16:43.453Z,26.67
2018-05-23T08:19:10.866Z,26.66
2018-05-23T08:21:38.277Z,26.81
2018-05-23T08:24:05.669Z,26.85
2018-05-23T08:26:33.065Z,26.93
2018-05-23T08:29:00.449Z,26.97
2018-05-23T08:31:27.849Z,26.58
2018-05-23T08:33:55.272Z,26.59
2018-05-23T08:36:22.715Z,26.70
2018-05-23T08:38:50.136Z,26.68
2018-05-23T08:41:17.605Z,26.97
2018-05-23T08:43:45.008Z,27.05
2018-05-23T08:46:12.419Z,27.13
2018-05-23T08:48:39.876Z,27.56
2018-05-23T08:51:07.264Z,27.66
2018-05-23T08:53:34.661Z,27.21
2018-05-23T08:56:02.162Z,26.87
2018-05-23T08:58:29.533Z,26.76
2018-05-23T09:00:57.041Z,26.68
2018-05-23T09:03:24.466Z,26.53
2018-05-23T09:05:51.872Z,26.57
2018-05-23T09:08:19.285Z,26.43
2018-05-23T09:10:46.805Z,26.07
2018-05-23T09:13:14.197Z,26.08
2018-05-23T09:15:41.585Z,26.01
2018-05-23T09:18:09.046Z,26.09
2018-05-23T09:20:36.514Z,26.15
2018-05-23T09:23:03.940Z,26.03
2018-05-23T09:25:31.456Z,25.85
2018-05-23T09:27:58.868Z,26.04
2018-05-23T09:30:26.349Z,26.00
2018-05-23T09:32:53.758Z,25.80
2018-05-23T09:35:21.149Z,25.96
2018-05-23T09:37:48.615Z,26.13
2018-05-23T09:40:16.074Z,26.17
2018-05-23T09:42:43.465Z,26.52
2018-05-23T09:45:10.896Z,26.72
2018-05-23T09:47:38.350Z,26.82
2018-05-23T09:50:05.749Z,26.86
2018-05-23T09:52:33.177Z,26.55
2018-05-23T09:55:00.729Z,26.44
2018-05-23T09:57:28.017Z,26.44
2018-05-23T09:59:55.409Z,26.43
2018-05-23T10:02:22.813Z,26.73
2018-05-23T10:04:50.283Z,26.93
2018-05-23T10:07:17.697Z,26.81
2018-05-23T10:09:45.082Z,26.81
2018-05-23T10:12:12.559Z,27.01
2018-05-23T10:14:39.998Z,27.15
2018-05-23T10:17:07.410Z,27.25
2018-05-23T10:19:34.912Z,27.31
2018-05-23T10:22:02.319Z,27.11
2018-05-23T10:24:29.712Z,26.84
2018-05-23T10:26:57.184Z,27.01
2018-05-23T10:29:24.641Z,27.00
2018-05-23T10:31:52.045Z,26.90
2018-05-23T10:34:19.462Z,26.94
2018-05-23T10:36:46.913Z,26.81
2018-05-23T10:39:14.396Z,27.15
2018-05-23T10:41:41.809Z,27.48
2018-05-23T10:44:09.220Z,27.36
2018-05-23T10:46:36.645Z,27.10
2018-05-23T10:49:04.113Z,27.24
2018-05-23T10:51:31.554Z,27.52
2018-05-23T10:53:58.937Z,27.50
2018-05-23T10:56:26.378Z,27.14
2018-05-23T10:58:53.793Z,27.20
2018-05-23T11:01:21.221Z,27.23
2018-05-23T11:03:48.656Z,27.03
2018-05-23T11:06:16.112Z,27.27
2018-05-23T11:08:43.551Z,27.58
2018-05-23T11:11:10.932Z,27.61
2018-05-23T11:13:38.377Z,27.76
2018-05-23T11:16:05.782Z,27.61
2018-05-23T11:18:33.177Z,27.29
2018-05-23T11:21:00.573Z,27.10
2018-05-23T11:23:27.997Z,26.77
2018-05-23T11:25:55.403Z,26.76
2018-05-23T11:28:22.924Z,27.00
2018-05-23T11:30:50.344Z,27.29
2018-05-23T11:33:17.810Z,27.27
2018-05-23T11:35:45.294Z,27.17
2018-05-23T11:38:12.755Z,27.27
2018-05-23T11:40:40.204Z,27.26
2018-05-23T11:43:07.610Z,27.18
2018-05-23T11:45:35.054Z,27.15
2018-05-23T11:48:02.462Z,27.10
2018-05-23T11:50:30.033Z,27.46
2018-05-23T11:52:57.447Z,27.56
2018-05-23T11:55:24.943Z,27.73
2018-05-23T11:57:52.409Z,27.46
2018-05-23T12:00:19.807Z,27.42
2018-05-23T12:02:47.305Z,27.50
2018-05-23T12:05:14.716Z,27.56
2018-05-23T12:07:42.121Z,27.73
2018-05-23T12:10:09.532Z,27.42
2018-05-23T12:12:36.938Z,27.40
2018-05-23T12:15:04.346Z,27.57
2018-05-23T12:17:31.737Z,27.22
2018-05-23T12:19:59.201Z,26.99
2018-05-23T12:22:26.608Z,26.99
2018-05-23T12:24:53.993Z,26.68
2018-05-23T12:27:21.473Z,26.78
2018-05-23T12:29:48.865Z,26.71
2018-05-23T12:32:16.270Z,26.90
2018-05-23T12:34:43.670Z,27.19
2018-05-23T12:37:11.068Z,27.49
2018-05-23T12:39:38.553Z,27.38
2018-05-23T12:42:05.973Z,27.30
2018-05-23T12:44:33.365Z,27.20
2018-05-23T12:47:00.765Z,27.16
2018-05-23T12:49:28.188Z,27.14
2018-05-23T12:51:55.679Z,27.22
2018-05-23T12:54:23.099Z,27.04
2018-05-23T12:56:50.505Z,26.87
2018-05-23T12:59:17.904Z,26.72
2018-05-23T13:01:45.298Z,26.88
2018-05-23T13:04:12.724Z,27.07
2018-05-23T13:06:40.123Z,27.07
2018-05-23T13:09:07.522Z,27.06
2018-05-23T13:11:34.926Z,27.15
2018-05-23T13:14:02.341Z,26.76
2018-05-23T13:16:29.927Z,26.94
2018-05-23T13:18:57.334Z,26.96
2018-05-23T13:21:24.741Z,26.86
2018-05-23T13:23:52.143Z,27.16
2018-05-23T13:26:19.526Z,27.16
2018-05-23T13:28:46.925Z,27.10
2018-05-23T13:31:14.344Z,27.34
2018-05-23T13:33:41.772Z,27.56
2018-05-23T13:36:09.198Z,27.48
2018-05-23T13:38:36.622Z,27.32
2018-05-23T13:41:04.010Z,27.38
2018-05-23T13:43:31.424Z,27.44
2018-05-23T13:45:58.899Z,27.65
2018-05-23T13:48:26.345Z,27.81
2018-05-23T13:50:53.737Z,27.83
2018-05-23T13:53:21.133Z,27.73
2018-05-23T13:55:48.635Z,27.98
2018-05-23T13:58:16.018Z,28.23
2018-05-23T14:00:43.447Z,27.91
2018-05-23T14:03:10.864Z,27.91
2018-05-23T14:05:38.359Z,27.91
2018-05-23T14:08:05.763Z,27.77
2018-05-23T14:10:33.176Z,27.37
2018-05-23T14:13:00.657Z,27.49
2018-05-23T14:15:28.742Z,27.56
2018-05-23T14:17:57.165Z,27.35
2018-05-23T14:20:24.559Z,27.08
2018-05-23T14:22:51.952Z,27.10
2018-05-23T14:25:19.443Z,27.02
2018-05-23T14:27:46.898Z,27.03
2018-05-23T14:30:14.291Z,26.69
2018-05-23T14:32:41.717Z,26.81
2018-05-23T14:35:09.121Z,27.06
2018-05-23T14:37:36.537Z,26.99
2018-05-23T14:40:03.953Z,27.10
2018-05-23T14:42:31.475Z,27.21
2018-05-23T14:44:58.889Z,27.15
2018-05-23T14:47:26.277Z,27.43
2018-05-23T14:49:53.680Z,27.51
2018-05-23T14:52:21.078Z,27.48
2018-05-23T14:54:48.482Z,27.30
2018-05-23T14:57:15.872Z,27.11
2018-05-23T14:59:43.371Z,26.94
2018-05-23T15:02:10.878Z,27.15
2018-05-23T15:04:38.285Z,27.01
2018-05-23T15:07:05.729Z,27.15
2018-05-23T15:09:33.128Z,27.01
2018-05-23T15:12:00.525Z,27.17
2018-05-23T15:14:28.102Z,27.56
2018-05-23T15:16:55.457Z,27.53
2018-05-23T15:19:22.854Z,27.40
2018-05-23T15:21:50.239Z,27.05
2018-05-23T15:24:17.744Z,27.13
2018-05-23T15:26:45.189Z,27.23
2018-05-23T15:29:12.641Z,27.18
2018-05-23T15:31:40.049Z,27.12
2018-05-23T15:34:07.467Z,27.15
2018-05-23T15:36:34.857Z,27.14
2018-05-23T15:39:02.275Z,26.87
2018-05-23T15:41:29.671Z,26.93
2018-05-23T15:43:57.081Z,26.91
2018-05-23T15:46:24.630Z,27.00
2018-05-23T15:48:52.044Z,27.06
2018-05-23T15:51:19.433Z,27.11
2018-05-23T15:53:46.831Z,27.24
2018-05-23T15:56:14.318Z,27.16
2018-05-23T15:58:41.824Z,27.02
2018-05-23T16:01:09.273Z,26.97
2018-05-23T16:03:36.713Z,26.84
2018-05-23T16:06:04.140Z,26.67
2018-05-23T16:08:31.552Z,26.76
2018-05-23T16:10:58.956Z,26.89
2018-05-23T16:13:26.449Z,26.59
2018-05-23T16:15:53.852Z,26.63
2018-05-23T16:18:21.265Z,26.79
2018-05-23T16:20:48.677Z,26.58
2018-05-23T16:23:16.154Z,26.41
2018-05-23T16:25:43.594Z,26.50
2018-05-23T16:28:11.005Z,26.45
2018-05-23T16:30:38.431Z,26.22
2018-05-23T16:33:05.845Z,26.09
2018-05-23T16:35:33.424Z,26.26
2018-05-23T16:38:00.848Z,26.21
2018-05-23T16:40:28.236Z,26.17
2018-05-23T16:42:55.703Z,26.24
2018-05-23T16:45:23.118Z,26.14
2018-05-23T16:47:50.515Z,25.94
2018-05-23T16:50:17.925Z,25.95
2018-05-23T16:52:45.421Z,26.05
2018-05-23T16:55:12.829Z,26.05
2018-05-23T16:57:40.205Z,26.16
2018-05-23T17:00:07.609Z,26.07
2018-05-23T17:02:35.102Z,26.11
2018-05-23T17:05:02.507Z,25.78
2018-05-23T17:07:29.964Z,25.75
2018-05-23T17:09:57.455Z,25.75
2018-05-23T17:12:24.866Z,25.68
2018-05-23T17:14:52.185Z,25.54
2018-05-23T17:17:19.598Z,25.53
2018-05-23T17:19:47.021Z,25.51
2018-05-23T17:22:14.503Z,25.55
2018-05-23T17:24:41.897Z,25.48
2018-05-23T17:27:09.316Z,25.43
2018-05-23T17:29:36.769Z,25.34
2018-05-23T17:32:04.243Z,25.33
2018-05-23T17:34:31.636Z,25.40
2018-05-23T17:36:59.021Z,25.37
2018-05-23T17:39:26.611Z,25.35
2018-05-23T17:41:54.202Z,25.14
2018-05-23T17:44:21.714Z,25.07
2018-05-23T17:46:49.193Z,24.98
2018-05-23T17:49:16.657Z,24.90
2018-05-23T17:51:44.053Z,24.98
2018-05-23T17:54:11.451Z,24.81
2018-05-23T17:56:38.922Z,24.85
2018-05-23T17:59:06.339Z,24.85
2018-05-23T18:01:33.737Z,24.81
2018-05-23T18:04:01.125Z,24.83
2018-05-23T18:06:28.572Z,24.85
2018-05-23T18:08:56.025Z,24.61
2018-05-23T18:11:23.492Z,24.47
2018-05-23T18:13:50.933Z,24.52
2018-05-23T18:16:18.377Z,24.55
2018-05-23T18:18:45.786Z,24.58
2018-05-23T18:21:13.221Z,24.45
2018-05-23T18:23:40.773Z,24.42
2018-05-23T18:26:08.206Z,24.36
2018-05-23T18:28:35.726Z,24.24
2018-05-23T18:31:03.097Z,24.11
2018-05-23T18:33:30.585Z,24.11
2018-05-23T18:35:57.988Z,24.00
2018-05-23T18:38:25.376Z,23.92
2018-05-23T18:40:53.011Z,23.92
2018-05-23T18:43:20.467Z,23.79
2018-05-23T18:45:47.853Z,23.71
2018-05-23T18:48:15.244Z,23.68
2018-05-23T18:50:42.642Z,23.68
2018-05-23T18:53:10.049Z,23.59
2018-05-23T18:55:37.468Z,23.50
2018-05-23T18:58:04.865Z,23.39
2018-05-23T19:00:32.263Z,23.44
2018-05-23T19:02:59.773Z,23.35
2018-05-23T19:05:28.071Z,23.13
2018-05-23T19:07:55.501Z,23.10
2018-05-23T19:10:22.925Z,23.02
2018-05-23T19:12:50.330Z,22.79
2018-05-23T19:15:17.759Z,22.82
2018-05-23T19:17:45.181Z,22.67
2018-05-23T19:20:12.606Z,22.46
2018-05-23T19:22:40.046Z,22.62
2018-05-23T19:25:07.457Z,22.66
2018-05-23T19:27:34.883Z,22.64
2018-05-23T19:30:02.283Z,22.36
2018-05-23T19:32:29.677Z,22.35
2018-05-23T19:34:57.117Z,22.18
2018-05-23T19:37:24.510Z,22.06
2018-05-23T19:39:51.925Z,22.00
2018-05-23T19:42:19.316Z,22.08
2018-05-23T19:44:46.722Z,21.91
2018-05-23T19:47:14.197Z,21.91
2018-05-23T19:49:41.641Z,21.80
2018-05-23T19:52:09.064Z,21.88
2018-05-23T19:54:36.455Z,21.83
2018-05-23T19:57:03.854Z,21.74
2018-05-23T19:59:31.267Z,21.67
2018-05-23T20:01:58.734Z,21.56
2018-05-23T20:04:26.081Z,21.54
2018-05-23T20:06:53.497Z,21.48
2018-05-23T20:09:20.903Z,21.35
2018-05-23T20:11:48.285Z,21.36
2018-05-23T20:14:15.957Z,21.38
2018-05-23T20:16:43.181Z,21.27
2018-05-23T20:19:10.582Z,21.31
2018-05-23T20:21:37.983Z,21.37
2018-05-23T20:24:05.361Z,21.23
2018-05-23T20:26:32.801Z,21.05
2018-05-23T20:29:00.262Z,21.03
2018-05-23T20:31:27.653Z,20.83
2018-05-23T20:33:55.062Z,20.82
2018-05-23T20:36:22.461Z,20.79
2018-05-23T20:38:49.863Z,20.65
2018-05-23T20:41:17.305Z,20.44
2018-05-23T20:43:45.341Z,20.48
2018-05-23T20:46:12.797Z,20.43
2018-05-23T20:48:40.249Z,20.44
2018-05-23T20:51:07.742Z,20.35
2018-05-23T20:53:35.178Z,20.35
2018-05-23T20:56:02.592Z,20.18
2018-05-23T20:58:30.075Z,20.23
2018-05-23T21:00:57.414Z,20.19
2018-05-23T21:03:24.823Z,20.20
2018-05-23T21:05:52.313Z,20.23
2018-05-23T21:08:19.709Z,20.00
2018-05-23T21:10:47.118Z,19.95
2018-05-23T21:13:14.497Z,19.87
2018-05-23T21:15:41.908Z,19.69
2018-05-23T21:18:09.409Z,19.62
2018-05-23T21:20:36.811Z,19.53
2018-05-23T21:23:04.205Z,19.48
2018-05-23T21:25:31.608Z,19.42
2018-05-23T21:27:58.997Z,19.35
2018-05-23T21:30:26.394Z,19.42
2018-05-23T21:32:53.773Z,19.40
2018-05-23T21:35:21.195Z,19.25
2018-05-23T21:37:48.604Z,19.34
2018-05-23T21:40:16.003Z,19.23
2018-05-23T21:42:43.489Z,19.20
2018-05-23T21:45:10.895Z,19.28
2018-05-23T21:47:38.437Z,19.26
2018-05-23T21:50:05.937Z,19.11
2018-05-23T21:52:33.317Z,19.12
2018-05-23T21:55:00.737Z,19.12
2018-05-23T21:57:28.206Z,19.18
2018-05-23T21:59:55.628Z,18.95
2018-05-23T22:02:23.078Z,18.88
2018-05-23T22:04:50.466Z,19.10
2018-05-23T22:07:17.912Z,19.05
2018-05-23T22:09:45.309Z,18.98
2018-05-23T22:12:12.702Z,18.70
2018-05-23T22:14:40.090Z,18.69
2018-05-23T22:17:07.503Z,18.60
2018-05-23T22:19:35.014Z,18.42
2018-05-23T22:22:02.405Z,18.27
2018-05-23T22:24:29.873Z,18.18
2018-05-23T22:26:57.188Z,18.22
2018-05-23T22:29:24.595Z,18.19
2018-05-23T22:31:52.071Z,18.03
2018-05-23T22:34:19.465Z,17.99
2018-05-23T22:36:46.873Z,17.97
2018-05-23T22:39:14.327Z,18.18
2018-05-23T22:41:41.734Z,17.98
2018-05-23T22:44:09.125Z,18.04
2018-05-23T22:46:36.594Z,18.14
2018-05-23T22:49:04.037Z,18.12
2018-05-23T22:51:31.493Z,17.98
2018-05-23T22:53:58.880Z,18.02
2018-05-23T22:56:26.285Z,18.04
2018-05-23T22:58:53.670Z,18.07
2018-05-23T23:01:21.096Z,17.91
2018-05-23T23:03:48.486Z,17.88
2018-05-23T23:06:15.867Z,17.79
2018-05-23T23:08:43.285Z,17.75
2018-05-23T23:11:10.755Z,17.73
2018-05-23T23:13:38.162Z,17.84
2018-05-23T23:16:05.658Z,17.90
2018-05-23T23:18:33.130Z,17.86
2018-05-23T23:21:00.600Z,17.84
2018-05-23T23:23:28.018Z,17.73
2018-05-23T23:25:55.436Z,17.70
2018-05-23T23:28:22.900Z,17.63
2018-05-23T23:30:50.363Z,17.54
2018-05-23T23:33:17.749Z,17.49
2018-05-23T23:35:45.183Z,17.33
2018-05-23T23:38:12.592Z,17.38
2018-05-23T23:40:40.166Z,17.33
2018-05-23T23:43:07.620Z,17.32
2018-05-23T23:45:35.090Z,17.26
2018-05-23T23:48:02.534Z,17.31
2018-05-23T23:50:29.992Z,17.30
2018-05-23T23:52:57.388Z,17.22
2018-05-23T23:55:24.801Z,17.22
2018-05-23T23:57:52.245Z,17.07
